sensor_id;sensor_type;location;lat;lon;timestamp;P1;P2;P0
59546;PMS5003;45368;55.002;-1.592;2023-05-29T00:02:13;9;8;
59546;PMS5003;45368;55.002;-1.592;2023-05-29T00:04:40;8;6;
59546;PMS5003;45368;55.002;-1.592;2023-05-29T00:07:07;8;6;
59546;PMS5003;45368;55.002;-1.592;2023-05-29T00:09:34;9;7;
59546;PMS5003;45368;55.002;-1.592;2023-05-29T00:12:02;10;7;
59546;PMS5003;45368;55.002;-1.592;2023-05-29T00:14:29;8;7;
59546;PMS5003;45368;55.002;-1.592;2023-05-29T00:16:57;9;7;
59546;PMS5003;45368;55.002;-1.592;2023-05-29T00:19:23;8;8;
59546;PMS5003;45368;55.002;-1.592;2023-05-29T00:21:50;8;6;
59546;PMS5003;45368;55.002;-1.592;2023-05-29T00:24:17;9;6;
59546;PMS5003;45368;55.002;-1.592;2023-05-29T00:26:45;10;6;
59546;PMS5003;45368;55.002;-1.592;2023-05-29T00:29:13;4;4;
59546;PMS5003;45368;55.002;-1.592;2023-05-29T00:31:40;8;7;
59546;PMS5003;45368;55.002;-1.592;2023-05-29T00:34:07;6;6;
59546;PMS5003;45368;55.002;-1.592;2023-05-29T00:36:34;8;7;
59546;PMS5003;45368;55.002;-1.592;2023-05-29T00:39:01;6;5;
59546;PMS5003;45368;55.002;-1.592;2023-05-29T00:41:28;7;5;
59546;PMS5003;45368;55.002;-1.592;2023-05-29T00:43:55;7;5;
59546;PMS5003;45368;55.002;-1.592;2023-05-29T00:46:23;6;5;
59546;PMS5003;45368;55.002;-1.592;2023-05-29T00:48:50;7;7;
59546;PMS5003;45368;55.002;-1.592;2023-05-29T00:51:18;7;7;
59546;PMS5003;45368;55.002;-1.592;2023-05-29T00:53:45;7;5;
59546;PMS5003;45368;55.002;-1.592;2023-05-29T00:56:15;8;7;
59546;PMS5003;45368;55.002;-1.592;2023-05-29T00:58:43;5;3;
59546;PMS5003;45368;55.002;-1.592;2023-05-29T01:01:11;6;5;
59546;PMS5003;45368;55.002;-1.592;2023-05-29T01:03:38;7;6;
59546;PMS5003;45368;55.002;-1.592;2023-05-29T01:06:06;7;6;
59546;PMS5003;45368;55.002;-1.592;2023-05-29T01:08:34;7;7;
59546;PMS5003;45368;55.002;-1.592;2023-05-29T01:11:03;11;6;
59546;PMS5003;45368;55.002;-1.592;2023-05-29T01:13:36;6;3;
59546;PMS5003;45368;55.002;-1.592;2023-05-29T01:16:08;8;7;
59546;PMS5003;45368;55.002;-1.592;2023-05-29T01:18:41;4;4;
59546;PMS5003;45368;55.002;-1.592;2023-05-29T01:21:16;6;5;
59546;PMS5003;45368;55.002;-1.592;2023-05-29T01:23:55;3;3;
59546;PMS5003;45368;55.002;-1.592;2023-05-29T01:27:01;6;5;
59546;PMS5003;45368;55.002;-1.592;2023-05-29T01:29:32;5;4;
59546;PMS5003;45368;55.002;-1.592;2023-05-29T01:32:01;6;4;
59546;PMS5003;45368;55.002;-1.592;2023-05-29T01:34:30;3;3;
59546;PMS5003;45368;55.002;-1.592;2023-05-29T01:36:57;5;4;
59546;PMS5003;45368;55.002;-1.592;2023-05-29T01:39:24;3;2;
59546;PMS5003;45368;55.002;-1.592;2023-05-29T01:41:52;5;4;
59546;PMS5003;45368;55.002;-1.592;2023-05-29T01:44:21;4;3;
59546;PMS5003;45368;55.002;-1.592;2023-05-29T01:46:49;4;4;
59546;PMS5003;45368;55.002;-1.592;2023-05-29T01:49:17;5;3;
59546;PMS5003;45368;55.002;-1.592;2023-05-29T01:51:45;5;5;
59546;PMS5003;45368;55.002;-1.592;2023-05-29T01:54:13;4;2;
59546;PMS5003;45368;55.002;-1.592;2023-05-29T01:56:40;3;2;
59546;PMS5003;45368;55.002;-1.592;2023-05-29T01:59:08;2;1;
59546;PMS5003;45368;55.002;-1.592;2023-05-29T02:01:38;4;3;
59546;PMS5003;45368;55.002;-1.592;2023-05-29T02:04:06;5;3;
59546;PMS5003;45368;55.002;-1.592;2023-05-29T02:06:33;5;4;
59546;PMS5003;45368;55.002;-1.592;2023-05-29T02:08:59;5;5;
59546;PMS5003;45368;55.002;-1.592;2023-05-29T02:11:27;6;4;
59546;PMS5003;45368;55.002;-1.592;2023-05-29T02:13:54;3;3;
59546;PMS5003;45368;55.002;-1.592;2023-05-29T02:16:21;4;4;
59546;PMS5003;45368;55.002;-1.592;2023-05-29T02:19:54;5;5;
59546;PMS5003;45368;55.002;-1.592;2023-05-29T02:23:36;5;5;
59546;PMS5003;45368;55.002;-1.592;2023-05-29T02:26:08;4;3;
59546;PMS5003;45368;55.002;-1.592;2023-05-29T02:28:40;6;4;
59546;PMS5003;45368;55.002;-1.592;2023-05-29T02:31:07;6;5;
59546;PMS5003;45368;55.002;-1.592;2023-05-29T02:35:56;9;4;
59546;PMS5003;45368;55.002;-1.592;2023-05-29T02:38:36;4;4;
59546;PMS5003;45368;55.002;-1.592;2023-05-29T02:42:21;8;4;
59546;PMS5003;45368;55.002;-1.592;2023-05-29T02:44:48;4;4;
59546;PMS5003;45368;55.002;-1.592;2023-05-29T02:47:15;4;2;
59546;PMS5003;45368;55.002;-1.592;2023-05-29T02:49:43;4;3;
59546;PMS5003;45368;55.002;-1.592;2023-05-29T02:52:10;4;3;
59546;PMS5003;45368;55.002;-1.592;2023-05-29T02:54:37;7;5;
59546;PMS5003;45368;55.002;-1.592;2023-05-29T02:57:04;5;4;
59546;PMS5003;45368;55.002;-1.592;2023-05-29T02:59:31;5;3;
59546;PMS5003;45368;55.002;-1.592;2023-05-29T03:01:58;3;2;
59546;PMS5003;45368;55.002;-1.592;2023-05-29T03:04:26;4;2;
59546;PMS5003;45368;55.002;-1.592;2023-05-29T03:06:54;4;3;
59546;PMS5003;45368;55.002;-1.592;2023-05-29T03:09:21;4;4;
59546;PMS5003;45368;55.002;-1.592;2023-05-29T03:11:48;5;5;
59546;PMS5003;45368;55.002;-1.592;2023-05-29T03:14:14;6;5;
59546;PMS5003;45368;55.002;-1.592;2023-05-29T03:16:42;8;7;
59546;PMS5003;45368;55.002;-1.592;2023-05-29T03:19:09;6;5;
59546;PMS5003;45368;55.002;-1.592;2023-05-29T03:21:36;7;6;
59546;PMS5003;45368;55.002;-1.592;2023-05-29T03:24:04;6;6;
59546;PMS5003;45368;55.002;-1.592;2023-05-29T03:26:32;8;6;
59546;PMS5003;45368;55.002;-1.592;2023-05-29T03:28:59;10;9;
59546;PMS5003;45368;55.002;-1.592;2023-05-29T03:31:26;5;5;
59546;PMS5003;45368;55.002;-1.592;2023-05-29T03:33:53;8;6;
59546;PMS5003;45368;55.002;-1.592;2023-05-29T03:36:20;8;6;
59546;PMS5003;45368;55.002;-1.592;2023-05-29T03:38:48;8;7;
59546;PMS5003;45368;55.002;-1.592;2023-05-29T03:41:15;7;6;
59546;PMS5003;45368;55.002;-1.592;2023-05-29T03:43:42;5;5;
59546;PMS5003;45368;55.002;-1.592;2023-05-29T03:46:09;8;6;
59546;PMS5003;45368;55.002;-1.592;2023-05-29T03:48:36;6;5;
59546;PMS5003;45368;55.002;-1.592;2023-05-29T03:51:03;6;6;
59546;PMS5003;45368;55.002;-1.592;2023-05-29T03:53:31;8;7;
59546;PMS5003;45368;55.002;-1.592;2023-05-29T03:55:59;6;5;
59546;PMS5003;45368;55.002;-1.592;2023-05-29T03:58:26;7;7;
59546;PMS5003;45368;55.002;-1.592;2023-05-29T04:00:55;9;9;
59546;PMS5003;45368;55.002;-1.592;2023-05-29T04:03:22;5;5;
59546;PMS5003;45368;55.002;-1.592;2023-05-29T04:05:49;4;4;
59546;PMS5003;45368;55.002;-1.592;2023-05-29T04:08:16;6;4;
59546;PMS5003;45368;55.002;-1.592;2023-05-29T04:10:44;5;5;
59546;PMS5003;45368;55.002;-1.592;2023-05-29T04:13:11;7;5;
59546;PMS5003;45368;55.002;-1.592;2023-05-29T04:15:38;9;6;
59546;PMS5003;45368;55.002;-1.592;2023-05-29T04:18:05;6;5;
59546;PMS5003;45368;55.002;-1.592;2023-05-29T04:20:32;8;6;
59546;PMS5003;45368;55.002;-1.592;2023-05-29T04:22:59;6;6;
59546;PMS5003;45368;55.002;-1.592;2023-05-29T04:25:26;9;8;
59546;PMS5003;45368;55.002;-1.592;2023-05-29T04:27:53;9;6;
59546;PMS5003;45368;55.002;-1.592;2023-05-29T04:30:20;11;6;
59546;PMS5003;45368;55.002;-1.592;2023-05-29T04:32:47;8;8;
59546;PMS5003;45368;55.002;-1.592;2023-05-29T04:35:14;7;5;
59546;PMS5003;45368;55.002;-1.592;2023-05-29T04:37:41;5;5;
59546;PMS5003;45368;55.002;-1.592;2023-05-29T04:40:09;8;8;
59546;PMS5003;45368;55.002;-1.592;2023-05-29T04:42:37;10;9;
59546;PMS5003;45368;55.002;-1.592;2023-05-29T04:45:05;8;4;
59546;PMS5003;45368;55.002;-1.592;2023-05-29T04:47:33;11;10;
59546;PMS5003;45368;55.002;-1.592;2023-05-29T04:50:01;7;6;
59546;PMS5003;45368;55.002;-1.592;2023-05-29T04:52:29;8;7;
59546;PMS5003;45368;55.002;-1.592;2023-05-29T04:54:55;9;8;
59546;PMS5003;45368;55.002;-1.592;2023-05-29T04:57:22;12;10;
59546;PMS5003;45368;55.002;-1.592;2023-05-29T04:59:49;8;8;
59546;PMS5003;45368;55.002;-1.592;2023-05-29T05:02:16;10;9;
59546;PMS5003;45368;55.002;-1.592;2023-05-29T05:04:44;9;8;
59546;PMS5003;45368;55.002;-1.592;2023-05-29T05:07:11;9;8;
59546;PMS5003;45368;55.002;-1.592;2023-05-29T05:09:38;8;8;
59546;PMS5003;45368;55.002;-1.592;2023-05-29T05:12:05;10;8;
59546;PMS5003;45368;55.002;-1.592;2023-05-29T05:14:33;12;9;
59546;PMS5003;45368;55.002;-1.592;2023-05-29T05:17:00;11;9;
59546;PMS5003;45368;55.002;-1.592;2023-05-29T05:19:27;10;10;
59546;PMS5003;45368;55.002;-1.592;2023-05-29T05:21:55;8;8;
59546;PMS5003;45368;55.002;-1.592;2023-05-29T05:24:22;8;8;
59546;PMS5003;45368;55.002;-1.592;2023-05-29T05:26:49;9;8;
59546;PMS5003;45368;55.002;-1.592;2023-05-29T05:29:16;6;6;
59546;PMS5003;45368;55.002;-1.592;2023-05-29T05:31:44;10;9;
59546;PMS5003;45368;55.002;-1.592;2023-05-29T05:34:11;10;8;
59546;PMS5003;45368;55.002;-1.592;2023-05-29T05:36:38;10;8;
59546;PMS5003;45368;55.002;-1.592;2023-05-29T05:39:05;12;9;
59546;PMS5003;45368;55.002;-1.592;2023-05-29T05:41:32;7;7;
59546;PMS5003;45368;55.002;-1.592;2023-05-29T05:43:59;7;6;
59546;PMS5003;45368;55.002;-1.592;2023-05-29T05:46:26;9;7;
59546;PMS5003;45368;55.002;-1.592;2023-05-29T05:48:53;8;8;
59546;PMS5003;45368;55.002;-1.592;2023-05-29T05:51:20;8;8;
59546;PMS5003;45368;55.002;-1.592;2023-05-29T05:53:47;7;5;
59546;PMS5003;45368;55.002;-1.592;2023-05-29T05:56:14;8;7;
59546;PMS5003;45368;55.002;-1.592;2023-05-29T05:58:41;7;5;
59546;PMS5003;45368;55.002;-1.592;2023-05-29T06:01:08;4;4;
59546;PMS5003;45368;55.002;-1.592;2023-05-29T06:03:35;6;4;
59546;PMS5003;45368;55.002;-1.592;2023-05-29T06:06:02;4;3;
59546;PMS5003;45368;55.002;-1.592;2023-05-29T06:08:30;8;5;
59546;PMS5003;45368;55.002;-1.592;2023-05-29T06:10:56;6;5;
59546;PMS5003;45368;55.002;-1.592;2023-05-29T06:13:23;8;5;
59546;PMS5003;45368;55.002;-1.592;2023-05-29T06:15:50;7;5;
59546;PMS5003;45368;55.002;-1.592;2023-05-29T06:18:18;5;4;
59546;PMS5003;45368;55.002;-1.592;2023-05-29T06:20:45;5;5;
59546;PMS5003;45368;55.002;-1.592;2023-05-29T06:23:13;7;4;
59546;PMS5003;45368;55.002;-1.592;2023-05-29T06:25:40;2;2;
59546;PMS5003;45368;55.002;-1.592;2023-05-29T06:28:06;3;3;
59546;PMS5003;45368;55.002;-1.592;2023-05-29T06:30:35;4;3;
59546;PMS5003;45368;55.002;-1.592;2023-05-29T06:33:02;4;3;
59546;PMS5003;45368;55.002;-1.592;2023-05-29T06:35:29;2;2;
59546;PMS5003;45368;55.002;-1.592;2023-05-29T06:37:56;4;3;
59546;PMS5003;45368;55.002;-1.592;2023-05-29T06:40:28;2;2;
59546;PMS5003;45368;55.002;-1.592;2023-05-29T06:42:57;5;5;
59546;PMS5003;45368;55.002;-1.592;2023-05-29T06:47:47;5;2;
59546;PMS5003;45368;55.002;-1.592;2023-05-29T06:51:04;1;0;
59546;PMS5003;45368;55.002;-1.592;2023-05-29T06:59:03;5;4;
59546;PMS5003;45368;55.002;-1.592;2023-05-29T07:01:58;2;2;
59546;PMS5003;45368;55.002;-1.592;2023-05-29T07:04:34;4;2;
59546;PMS5003;45368;55.002;-1.592;2023-05-29T07:08:45;2;2;
59546;PMS5003;45368;55.002;-1.592;2023-05-29T07:11:12;2;2;
59546;PMS5003;45368;55.002;-1.592;2023-05-29T07:13:40;4;3;
59546;PMS5003;45368;55.002;-1.592;2023-05-29T07:16:07;3;2;
59546;PMS5003;45368;55.002;-1.592;2023-05-29T07:18:34;2;1;
59546;PMS5003;45368;55.002;-1.592;2023-05-29T07:21:02;1;1;
59546;PMS5003;45368;55.002;-1.592;2023-05-29T07:23:29;0;0;
59546;PMS5003;45368;55.002;-1.592;2023-05-29T07:25:56;2;2;
59546;PMS5003;45368;55.002;-1.592;2023-05-29T07:28:23;0;0;
59546;PMS5003;45368;55.002;-1.592;2023-05-29T07:30:50;2;2;
59546;PMS5003;45368;55.002;-1.592;2023-05-29T07:33:18;5;2;
59546;PMS5003;45368;55.002;-1.592;2023-05-29T07:35:45;0;0;
59546;PMS5003;45368;55.002;-1.592;2023-05-29T07:38:13;6;3;
59546;PMS5003;45368;55.002;-1.592;2023-05-29T07:40:39;2;1;
59546;PMS5003;45368;55.002;-1.592;2023-05-29T07:43:06;1;0;
59546;PMS5003;45368;55.002;-1.592;2023-05-29T07:45:33;1;1;
59546;PMS5003;45368;55.002;-1.592;2023-05-29T07:48:00;3;2;
59546;PMS5003;45368;55.002;-1.592;2023-05-29T07:50:27;3;2;
59546;PMS5003;45368;55.002;-1.592;2023-05-29T07:52:55;3;1;
59546;PMS5003;45368;55.002;-1.592;2023-05-29T07:55:21;3;2;
59546;PMS5003;45368;55.002;-1.592;2023-05-29T07:57:50;0;0;
59546;PMS5003;45368;55.002;-1.592;2023-05-29T08:00:17;2;1;
59546;PMS5003;45368;55.002;-1.592;2023-05-29T08:02:44;1;0;
59546;PMS5003;45368;55.002;-1.592;2023-05-29T08:05:12;3;2;
59546;PMS5003;45368;55.002;-1.592;2023-05-29T08:07:40;2;2;
59546;PMS5003;45368;55.002;-1.592;2023-05-29T08:10:07;4;2;
59546;PMS5003;45368;55.002;-1.592;2023-05-29T08:12:34;1;1;
59546;PMS5003;45368;55.002;-1.592;2023-05-29T08:15:02;2;2;
59546;PMS5003;45368;55.002;-1.592;2023-05-29T08:17:29;1;1;
59546;PMS5003;45368;55.002;-1.592;2023-05-29T08:19:56;2;1;
59546;PMS5003;45368;55.002;-1.592;2023-05-29T08:22:27;1;1;
59546;PMS5003;45368;55.002;-1.592;2023-05-29T08:24:55;1;1;
59546;PMS5003;45368;55.002;-1.592;2023-05-29T08:27:23;3;1;
59546;PMS5003;45368;55.002;-1.592;2023-05-29T08:29:50;1;1;
59546;PMS5003;45368;55.002;-1.592;2023-05-29T08:32:18;1;1;
59546;PMS5003;45368;55.002;-1.592;2023-05-29T08:34:45;2;2;
59546;PMS5003;45368;55.002;-1.592;2023-05-29T08:37:12;1;1;
59546;PMS5003;45368;55.002;-1.592;2023-05-29T08:39:39;2;1;
59546;PMS5003;45368;55.002;-1.592;2023-05-29T08:42:08;3;2;
59546;PMS5003;45368;55.002;-1.592;2023-05-29T08:44:39;1;1;
59546;PMS5003;45368;55.002;-1.592;2023-05-29T08:47:07;3;2;
59546;PMS5003;45368;55.002;-1.592;2023-05-29T08:49:39;4;1;
59546;PMS5003;45368;55.002;-1.592;2023-05-29T08:52:09;1;0;
59546;PMS5003;45368;55.002;-1.592;2023-05-29T08:54:42;1;0;
59546;PMS5003;45368;55.002;-1.592;2023-05-29T08:57:11;1;0;
59546;PMS5003;45368;55.002;-1.592;2023-05-29T08:59:39;1;1;
59546;PMS5003;45368;55.002;-1.592;2023-05-29T09:02:09;2;2;
59546;PMS5003;45368;55.002;-1.592;2023-05-29T09:04:38;2;0;
59546;PMS5003;45368;55.002;-1.592;2023-05-29T09:07:07;2;1;
59546;PMS5003;45368;55.002;-1.592;2023-05-29T09:09:34;3;1;
59546;PMS5003;45368;55.002;-1.592;2023-05-29T09:12:02;2;2;
59546;PMS5003;45368;55.002;-1.592;2023-05-29T09:14:33;2;1;
59546;PMS5003;45368;55.002;-1.592;2023-05-29T09:17:02;4;1;
59546;PMS5003;45368;55.002;-1.592;2023-05-29T09:19:30;2;2;
59546;PMS5003;45368;55.002;-1.592;2023-05-29T09:22:02;4;2;
59546;PMS5003;45368;55.002;-1.592;2023-05-29T09:24:32;1;0;
59546;PMS5003;45368;55.002;-1.592;2023-05-29T09:27:00;4;3;
59546;PMS5003;45368;55.002;-1.592;2023-05-29T09:29:28;0;0;
59546;PMS5003;45368;55.002;-1.592;2023-05-29T09:31:57;4;2;
59546;PMS5003;45368;55.002;-1.592;2023-05-29T09:34:24;5;3;
59546;PMS5003;45368;55.002;-1.592;2023-05-29T09:36:52;0;0;
59546;PMS5003;45368;55.002;-1.592;2023-05-29T09:39:20;2;2;
59546;PMS5003;45368;55.002;-1.592;2023-05-29T09:41:47;3;2;
59546;PMS5003;45368;55.002;-1.592;2023-05-29T09:44:15;3;2;
59546;PMS5003;45368;55.002;-1.592;2023-05-29T09:46:42;4;2;
59546;PMS5003;45368;55.002;-1.592;2023-05-29T09:49:12;3;3;
59546;PMS5003;45368;55.002;-1.592;2023-05-29T09:51:40;1;1;
59546;PMS5003;45368;55.002;-1.592;2023-05-29T09:54:15;3;2;
59546;PMS5003;45368;55.002;-1.592;2023-05-29T09:56:43;2;1;
59546;PMS5003;45368;55.002;-1.592;2023-05-29T09:59:12;5;3;
59546;PMS5003;45368;55.002;-1.592;2023-05-29T10:01:41;1;1;
59546;PMS5003;45368;55.002;-1.592;2023-05-29T10:04:09;1;0;
59546;PMS5003;45368;55.002;-1.592;2023-05-29T10:06:37;2;2;
59546;PMS5003;45368;55.002;-1.592;2023-05-29T10:09:08;1;1;
59546;PMS5003;45368;55.002;-1.592;2023-05-29T10:11:38;3;2;
59546;PMS5003;45368;55.002;-1.592;2023-05-29T10:14:10;2;2;
59546;PMS5003;45368;55.002;-1.592;2023-05-29T10:16:41;3;2;
59546;PMS5003;45368;55.002;-1.592;2023-05-29T10:19:11;4;2;
59546;PMS5003;45368;55.002;-1.592;2023-05-29T10:21:42;2;1;
59546;PMS5003;45368;55.002;-1.592;2023-05-29T10:24:10;2;1;
59546;PMS5003;45368;55.002;-1.592;2023-05-29T10:26:39;3;2;
59546;PMS5003;45368;55.002;-1.592;2023-05-29T10:29:11;2;1;
59546;PMS5003;45368;55.002;-1.592;2023-05-29T10:31:48;1;0;
59546;PMS5003;45368;55.002;-1.592;2023-05-29T10:34:30;4;2;
59546;PMS5003;45368;55.002;-1.592;2023-05-29T10:37:15;2;2;
59546;PMS5003;45368;55.002;-1.592;2023-05-29T10:39:51;2;1;
59546;PMS5003;45368;55.002;-1.592;2023-05-29T10:42:51;4;2;
59546;PMS5003;45368;55.002;-1.592;2023-05-29T10:45:51;5;3;
59546;PMS5003;45368;55.002;-1.592;2023-05-29T10:48:52;4;3;
59546;PMS5003;45368;55.002;-1.592;2023-05-29T10:51:24;3;2;
59546;PMS5003;45368;55.002;-1.592;2023-05-29T10:53:53;1;1;
59546;PMS5003;45368;55.002;-1.592;2023-05-29T10:56:22;4;3;
59546;PMS5003;45368;55.002;-1.592;2023-05-29T10:58:52;4;2;
59546;PMS5003;45368;55.002;-1.592;2023-05-29T11:01:25;2;2;
59546;PMS5003;45368;55.002;-1.592;2023-05-29T11:04:48;1;1;
59546;PMS5003;45368;55.002;-1.592;2023-05-29T11:07:32;3;2;
59546;PMS5003;45368;55.002;-1.592;2023-05-29T11:10:10;2;1;
59546;PMS5003;45368;55.002;-1.592;2023-05-29T11:13:32;0;0;
59546;PMS5003;45368;55.002;-1.592;2023-05-29T11:16:10;5;4;
59546;PMS5003;45368;55.002;-1.592;2023-05-29T11:18:47;2;2;
59546;PMS5003;45368;55.002;-1.592;2023-05-29T11:23:31;2;2;
59546;PMS5003;45368;55.002;-1.592;2023-05-29T11:26:04;4;2;
59546;PMS5003;45368;55.002;-1.592;2023-05-29T11:28:34;1;1;
59546;PMS5003;45368;55.002;-1.592;2023-05-29T11:31:33;5;3;
59546;PMS5003;45368;55.002;-1.592;2023-05-29T11:34:09;5;3;
59546;PMS5003;45368;55.002;-1.592;2023-05-29T11:36:48;3;3;
59546;PMS5003;45368;55.002;-1.592;2023-05-29T11:39:23;2;1;
59546;PMS5003;45368;55.002;-1.592;2023-05-29T11:41:55;3;2;
59546;PMS5003;45368;55.002;-1.592;2023-05-29T11:44:23;3;3;
59546;PMS5003;45368;55.002;-1.592;2023-05-29T11:46:59;2;1;
59546;PMS5003;45368;55.002;-1.592;2023-05-29T11:49:28;4;2;
59546;PMS5003;45368;55.002;-1.592;2023-05-29T11:52:03;3;2;
59546;PMS5003;45368;55.002;-1.592;2023-05-29T11:54:32;2;1;
59546;PMS5003;45368;55.002;-1.592;2023-05-29T11:56:59;2;1;
59546;PMS5003;45368;55.002;-1.592;2023-05-29T11:59:28;5;3;
59546;PMS5003;45368;55.002;-1.592;2023-05-29T12:01:56;3;2;
59546;PMS5003;45368;55.002;-1.592;2023-05-29T12:04:23;5;3;
59546;PMS5003;45368;55.002;-1.592;2023-05-29T12:06:50;4;2;
59546;PMS5003;45368;55.002;-1.592;2023-05-29T12:09:25;5;3;
59546;PMS5003;45368;55.002;-1.592;2023-05-29T12:11:53;2;2;
59546;PMS5003;45368;55.002;-1.592;2023-05-29T12:14:27;4;3;
59546;PMS5003;45368;55.002;-1.592;2023-05-29T12:16:54;1;1;
59546;PMS5003;45368;55.002;-1.592;2023-05-29T12:19:21;3;2;
59546;PMS5003;45368;55.002;-1.592;2023-05-29T12:21:49;3;2;
59546;PMS5003;45368;55.002;-1.592;2023-05-29T12:24:19;2;2;
59546;PMS5003;45368;55.002;-1.592;2023-05-29T12:26:46;4;3;
59546;PMS5003;45368;55.002;-1.592;2023-05-29T12:29:15;3;2;
59546;PMS5003;45368;55.002;-1.592;2023-05-29T12:31:43;5;3;
59546;PMS5003;45368;55.002;-1.592;2023-05-29T12:34:11;5;3;
59546;PMS5003;45368;55.002;-1.592;2023-05-29T12:36:39;3;1;
59546;PMS5003;45368;55.002;-1.592;2023-05-29T12:39:07;4;2;
59546;PMS5003;45368;55.002;-1.592;2023-05-29T12:41:34;3;2;
59546;PMS5003;45368;55.002;-1.592;2023-05-29T12:44:03;4;3;
59546;PMS5003;45368;55.002;-1.592;2023-05-29T12:46:35;4;4;
59546;PMS5003;45368;55.002;-1.592;2023-05-29T12:49:11;3;2;
59546;PMS5003;45368;55.002;-1.592;2023-05-29T12:51:40;3;3;
59546;PMS5003;45368;55.002;-1.592;2023-05-29T12:54:09;7;3;
59546;PMS5003;45368;55.002;-1.592;2023-05-29T12:56:36;5;4;
59546;PMS5003;45368;55.002;-1.592;2023-05-29T12:59:03;5;3;
59546;PMS5003;45368;55.002;-1.592;2023-05-29T13:01:31;3;3;
59546;PMS5003;45368;55.002;-1.592;2023-05-29T13:03:58;1;1;
59546;PMS5003;45368;55.002;-1.592;2023-05-29T13:06:25;6;3;
59546;PMS5003;45368;55.002;-1.592;2023-05-29T13:08:53;3;2;
59546;PMS5003;45368;55.002;-1.592;2023-05-29T13:11:21;5;4;
59546;PMS5003;45368;55.002;-1.592;2023-05-29T13:13:47;3;3;
59546;PMS5003;45368;55.002;-1.592;2023-05-29T13:16:15;3;2;
59546;PMS5003;45368;55.002;-1.592;2023-05-29T13:18:43;6;3;
59546;PMS5003;45368;55.002;-1.592;2023-05-29T13:21:10;3;1;
59546;PMS5003;45368;55.002;-1.592;2023-05-29T13:23:38;5;4;
59546;PMS5003;45368;55.002;-1.592;2023-05-29T13:26:06;3;2;
59546;PMS5003;45368;55.002;-1.592;2023-05-29T13:28:33;3;3;
59546;PMS5003;45368;55.002;-1.592;2023-05-29T13:31:00;1;1;
59546;PMS5003;45368;55.002;-1.592;2023-05-29T13:33:28;3;3;
59546;PMS5003;45368;55.002;-1.592;2023-05-29T13:35:55;7;3;
59546;PMS5003;45368;55.002;-1.592;2023-05-29T13:38:22;3;2;
59546;PMS5003;45368;55.002;-1.592;2023-05-29T13:40:50;4;3;
59546;PMS5003;45368;55.002;-1.592;2023-05-29T13:43:22;4;3;
59546;PMS5003;45368;55.002;-1.592;2023-05-29T13:45:50;6;4;
59546;PMS5003;45368;55.002;-1.592;2023-05-29T13:48:16;4;4;
59546;PMS5003;45368;55.002;-1.592;2023-05-29T13:50:44;5;4;
59546;PMS5003;45368;55.002;-1.592;2023-05-29T13:53:11;6;5;
59546;PMS5003;45368;55.002;-1.592;2023-05-29T13:55:39;3;2;
59546;PMS5003;45368;55.002;-1.592;2023-05-29T13:58:06;3;3;
59546;PMS5003;45368;55.002;-1.592;2023-05-29T14:00:32;2;2;
59546;PMS5003;45368;55.002;-1.592;2023-05-29T14:03:00;6;5;
59546;PMS5003;45368;55.002;-1.592;2023-05-29T14:05:27;6;4;
59546;PMS5003;45368;55.002;-1.592;2023-05-29T14:07:54;5;2;
59546;PMS5003;45368;55.002;-1.592;2023-05-29T14:10:21;5;3;
59546;PMS5003;45368;55.002;-1.592;2023-05-29T14:12:48;3;2;
59546;PMS5003;45368;55.002;-1.592;2023-05-29T14:15:16;5;3;
59546;PMS5003;45368;55.002;-1.592;2023-05-29T14:17:44;6;3;
59546;PMS5003;45368;55.002;-1.592;2023-05-29T14:20:11;2;2;
59546;PMS5003;45368;55.002;-1.592;2023-05-29T14:22:39;4;3;
59546;PMS5003;45368;55.002;-1.592;2023-05-29T14:25:06;4;3;
59546;PMS5003;45368;55.002;-1.592;2023-05-29T14:27:33;2;2;
59546;PMS5003;45368;55.002;-1.592;2023-05-29T14:30:01;6;6;
59546;PMS5003;45368;55.002;-1.592;2023-05-29T14:32:29;10;4;
59546;PMS5003;45368;55.002;-1.592;2023-05-29T14:34:56;4;2;
59546;PMS5003;45368;55.002;-1.592;2023-05-29T14:37:23;4;3;
59546;PMS5003;45368;55.002;-1.592;2023-05-29T14:39:51;5;4;
59546;PMS5003;45368;55.002;-1.592;2023-05-29T14:42:19;3;3;
59546;PMS5003;45368;55.002;-1.592;2023-05-29T14:44:46;5;3;
59546;PMS5003;45368;55.002;-1.592;2023-05-29T14:47:13;5;4;
59546;PMS5003;45368;55.002;-1.592;2023-05-29T14:49:41;3;2;
59546;PMS5003;45368;55.002;-1.592;2023-05-29T14:52:08;4;2;
59546;PMS5003;45368;55.002;-1.592;2023-05-29T14:54:35;6;3;
59546;PMS5003;45368;55.002;-1.592;2023-05-29T14:57:02;5;3;
59546;PMS5003;45368;55.002;-1.592;2023-05-29T14:59:30;5;3;
59546;PMS5003;45368;55.002;-1.592;2023-05-29T15:01:58;3;3;
59546;PMS5003;45368;55.002;-1.592;2023-05-29T15:04:25;5;4;
59546;PMS5003;45368;55.002;-1.592;2023-05-29T15:06:52;3;3;
59546;PMS5003;45368;55.002;-1.592;2023-05-29T15:09:20;4;4;
59546;PMS5003;45368;55.002;-1.592;2023-05-29T15:11:47;5;3;
59546;PMS5003;45368;55.002;-1.592;2023-05-29T15:14:13;6;3;
59546;PMS5003;45368;55.002;-1.592;2023-05-29T15:16:41;4;3;
59546;PMS5003;45368;55.002;-1.592;2023-05-29T15:19:09;3;2;
59546;PMS5003;45368;55.002;-1.592;2023-05-29T15:21:37;4;3;
59546;PMS5003;45368;55.002;-1.592;2023-05-29T15:25:09;3;3;
59546;PMS5003;45368;55.002;-1.592;2023-05-29T15:27:38;4;3;
59546;PMS5003;45368;55.002;-1.592;2023-05-29T15:30:14;3;3;
59546;PMS5003;45368;55.002;-1.592;2023-05-29T15:32:49;4;1;
59546;PMS5003;45368;55.002;-1.592;2023-05-29T15:35:16;2;2;
59546;PMS5003;45368;55.002;-1.592;2023-05-29T15:37:43;4;3;
59546;PMS5003;45368;55.002;-1.592;2023-05-29T15:40:10;5;3;
59546;PMS5003;45368;55.002;-1.592;2023-05-29T15:42:38;5;3;
59546;PMS5003;45368;55.002;-1.592;2023-05-29T15:45:41;3;2;
59546;PMS5003;45368;55.002;-1.592;2023-05-29T15:46:47;3;2;
59546;PMS5003;45368;55.002;-1.592;2023-05-29T15:49:15;4;2;
59546;PMS5003;45368;55.002;-1.592;2023-05-29T15:51:43;4;4;
59546;PMS5003;45368;55.002;-1.592;2023-05-29T15:54:09;2;1;
59546;PMS5003;45368;55.002;-1.592;2023-05-29T15:56:36;5;3;
59546;PMS5003;45368;55.002;-1.592;2023-05-29T15:59:03;5;3;
59546;PMS5003;45368;55.002;-1.592;2023-05-29T16:01:31;4;3;
59546;PMS5003;45368;55.002;-1.592;2023-05-29T16:03:57;5;4;
59546;PMS5003;45368;55.002;-1.592;2023-05-29T16:06:24;2;2;
59546;PMS5003;45368;55.002;-1.592;2023-05-29T16:08:52;6;5;
59546;PMS5003;45368;55.002;-1.592;2023-05-29T16:11:19;5;4;
59546;PMS5003;45368;55.002;-1.592;2023-05-29T16:13:45;5;5;
59546;PMS5003;45368;55.002;-1.592;2023-05-29T16:16:12;5;3;
59546;PMS5003;45368;55.002;-1.592;2023-05-29T16:18:40;4;3;
59546;PMS5003;45368;55.002;-1.592;2023-05-29T16:21:07;9;7;
59546;PMS5003;45368;55.002;-1.592;2023-05-29T16:23:34;5;5;
59546;PMS5003;45368;55.002;-1.592;2023-05-29T16:26:01;5;4;
59546;PMS5003;45368;55.002;-1.592;2023-05-29T16:28:29;7;5;
59546;PMS5003;45368;55.002;-1.592;2023-05-29T16:30:55;8;5;
59546;PMS5003;45368;55.002;-1.592;2023-05-29T16:33:22;4;4;
59546;PMS5003;45368;55.002;-1.592;2023-05-29T16:35:49;3;3;
59546;PMS5003;45368;55.002;-1.592;2023-05-29T16:38:16;5;4;
59546;PMS5003;45368;55.002;-1.592;2023-05-29T16:40:43;6;5;
59546;PMS5003;45368;55.002;-1.592;2023-05-29T16:43:10;5;3;
59546;PMS5003;45368;55.002;-1.592;2023-05-29T16:45:36;3;3;
59546;PMS5003;45368;55.002;-1.592;2023-05-29T16:48:04;5;3;
59546;PMS5003;45368;55.002;-1.592;2023-05-29T16:50:32;10;8;
59546;PMS5003;45368;55.002;-1.592;2023-05-29T16:52:59;4;4;
59546;PMS5003;45368;55.002;-1.592;2023-05-29T16:55:25;5;5;
59546;PMS5003;45368;55.002;-1.592;2023-05-29T16:57:52;5;4;
59546;PMS5003;45368;55.002;-1.592;2023-05-29T17:00:20;4;3;
59546;PMS5003;45368;55.002;-1.592;2023-05-29T17:02:48;4;4;
59546;PMS5003;45368;55.002;-1.592;2023-05-29T17:05:15;4;3;